Accueil
METAR-TAF:

METAR-TAF

Aéroports :

Aéroport de Port Elizabeth

Port Elizabeth, Afrique du Sud

latitude: 33-59S, longitude: 025-36E, altitude: 61 m

Observation

Le bulletin a été fait il y a 56 minutes, à 13:00 UTC
Vent 7 kt de est
Température 21°C
Humidité 56%
Pression 1022 hPa
Visibilité 10 km ou plus
pas de nuages en-dessous de 1500 mètres et pas de cumulonimbus.

METAR: FAPE 271300Z 08007KT CAVOK 21/12 Q1022 NOSIG

Heure: 15:56 (13:56 UTC)

Prévision

Le bulletin a été fait il y a 3 heures et 56 minutes, à 10:00 UTC
Prévision valable du 27 à 12 UTC au 28 à 12 UTC
Vent 7 kt de nord/nord-est
Visibilité 10 km ou plus
pas de nuages en-dessous de 1500 mètres et pas de cumulonimbus.
Evoluant progressivement
du 28 à 00 UTC au 28 à 02 UTC
Vent 5 kt de nord/nord-ouest

TAF: FAPE 271000Z 2712/2812 03007KT CAVOK TX26/2811Z TN15/2804Z BECMG 2800/2802 33005KT

Observations et prévisions météorologiques de plus de 4000 aéroports (messages METAR et TAF).

Les stations disponibles sont représentées par des disques jaunes et rouges sur la carte.

Passer la souris dessus pour voir le nom de la station.

Cliquer dessus pour voir les observations et prévisions météorologiques.

Pour changer de carte: cliquez sur les boutons verts avec une croix noire pour zoomer, sur le bouton vert avec un tiret pour effectuer un zoom arrière, ou sur les flèches vertes pour les cartes adjacentes.


METAR-TAF: